Norfolk, Virginia
Traffic Map
Current Weather Conditions
Norfolk, Virginia
Overcast Light Rain
Overcast
71°
Feels Like: 71°
Wind Chill: 71° Ceiling: 500
Heat Index: 71° Visibility: 6mi
Dew Point: 68° Wind: 3mph
Humidity: 90% Direction: 220° (SW)
Pressure: 30.09in Gusts: 0mph
Raw Report DataKORF 020251Z AUTO 22003KT 6SM -RA BR BKN005 BKN010 OVC016 22/20 A3009 RMK AO2 SLP189 P0014 60026 T02170200 58002 TSNO
Traffic Incident Summary
Active as of:
Severity:
Category:
InformationThere was an issue retrieving the traffic information for this location. Please try a different location or try again shortly.
Advertisements
Track Severe Weather on mobile